LHSN

Szolnok Airport

Szolnok, Hungary
TAF LHSN 212315Z 2200/2209 VRB03KT 8000 NSC TEMPO 2200/2202 5000 BR BECMG 2202/2206 03005KT BKN030 OVC050 TEMPO 2202/2209 5000 BR -SN
Issued Valid From Valid To
Jan-21 @ 23:15 UTC
(56 minutes ago)
Jan-22 @ 00:00 UTC
(11 minutes ago)
Jan-22 @ 09:00 UTC
(in 9 hours)
Jan-22 @ 00:00 to Jan-22 @ 02:00
TAF LHSN 212315Z 2200/2209 VRB03KT 8000 NSC
Wind Visibility Clouds
Variable at 3 knots 7,998 meters
  • No significant clouds
Temporary Jan-22 @ 00:00 to Jan-22 @ 02:00
TEMPO 2200/2202 5000 BR
Visibility Conditions
5,005 meters
  • Mist
Becoming Jan-22 @ 02:00 to Jan-22 @ 09:00
BECMG 2202/2206 03005KT BKN030 OVC050
Wind Visibility Clouds
30° at 5 knots 7,998 meters
  • Broken at 3,000' AGL
  • Overcast at 5,000' AGL
Temporary Jan-22 @ 02:00 to Jan-22 @ 09:00
TEMPO 2202/2209 5000 BR -SN
Visibility Conditions
5,005 meters
  • Mist
  • Light Snow
TAF LHSN 212315Z 2200/2209 VRB03KT 8000 NSC TEMPO 2200/2202 5000 BR BECMG 2202/2206 03005KT BKN030 OVC050 TEMPO 2202/2209 5000 BR -SN
Issued Jan-21 @ 23:15 UTC
(56 minutes ago)
Valid From Jan-22 @ 00:00 UTC
(11 minutes ago)
Valid To Jan-22 @ 09:00 UTC
(in 9 hours)
Jan-22 @ 00:00 - Jan-22 @ 02:00
Wind Visibility
Variable at 3 knots 7,998 meters
Clouds
  • No significant clouds
Temporary Jan-22 @ 00:00 - Jan-22 @ 02:00
Conditions
  • Mist
Becoming Jan-22 @ 02:00 - Jan-22 @ 09:00
Wind Visibility
30° at 5 knots 7,998 meters
Clouds
  • Broken at 3,000' AGL
  • Overcast at 5,000' AGL
Temporary Jan-22 @ 02:00 - Jan-22 @ 09:00
Conditions
  • Mist
  • Light Snow